sensor_id;sensor_type;location;lat;lon;timestamp;temperature;humidity
44990;DHT22;30723;51.206;3.326;2023-04-05T00:02:16;4.30;99.90
44990;DHT22;30723;51.206;3.326;2023-04-05T00:04:45;4.30;99.90
44990;DHT22;30723;51.206;3.326;2023-04-05T00:07:19;4.30;99.90
44990;DHT22;30723;51.206;3.326;2023-04-05T00:09:46;4.20;99.90
44990;DHT22;30723;51.206;3.326;2023-04-05T00:12:12;4.20;99.90
44990;DHT22;30723;51.206;3.326;2023-04-05T00:14:38;4.20;99.90
44990;DHT22;30723;51.206;3.326;2023-04-05T00:17:04;4.20;99.90
44990;DHT22;30723;51.206;3.326;2023-04-05T00:19:29;4.10;99.90
44990;DHT22;30723;51.206;3.326;2023-04-05T00:21:59;4.10;99.90
44990;DHT22;30723;51.206;3.326;2023-04-05T00:24:26;4.10;99.90
44990;DHT22;30723;51.206;3.326;2023-04-05T00:26:55;4.00;99.90
44990;DHT22;30723;51.206;3.326;2023-04-05T00:29:22;4.00;99.90
44990;DHT22;30723;51.206;3.326;2023-04-05T00:31:48;4.00;99.90
44990;DHT22;30723;51.206;3.326;2023-04-05T00:34:15;4.00;99.90
44990;DHT22;30723;51.206;3.326;2023-04-05T00:36:42;3.90;99.90
44990;DHT22;30723;51.206;3.326;2023-04-05T00:39:09;3.90;99.90
44990;DHT22;30723;51.206;3.326;2023-04-05T00:41:35;3.80;99.90
44990;DHT22;30723;51.206;3.326;2023-04-05T00:44:02;3.80;99.90
44990;DHT22;30723;51.206;3.326;2023-04-05T00:46:30;3.80;99.90
44990;DHT22;30723;51.206;3.326;2023-04-05T00:48:59;3.70;99.90
44990;DHT22;30723;51.206;3.326;2023-04-05T00:51:25;3.60;99.90
44990;DHT22;30723;51.206;3.326;2023-04-05T00:53:53;3.60;99.90
44990;DHT22;30723;51.206;3.326;2023-04-05T00:56:20;3.50;99.90
44990;DHT22;30723;51.206;3.326;2023-04-05T00:58:48;3.40;99.90
44990;DHT22;30723;51.206;3.326;2023-04-05T01:01:19;3.40;99.90
44990;DHT22;30723;51.206;3.326;2023-04-05T01:03:56;3.30;99.90
44990;DHT22;30723;51.206;3.326;2023-04-05T01:12:08;3.30;99.90
44990;DHT22;30723;51.206;3.326;2023-04-05T01:15:03;3.30;99.90
44990;DHT22;30723;51.206;3.326;2023-04-05T01:17:30;3.30;99.90
44990;DHT22;30723;51.206;3.326;2023-04-05T01:20:03;3.30;99.90
44990;DHT22;30723;51.206;3.326;2023-04-05T01:31:06;3.10;99.90
44990;DHT22;30723;51.206;3.326;2023-04-05T01:36:42;3.10;99.90
44990;DHT22;30723;51.206;3.326;2023-04-05T01:39:13;3.20;99.90
44990;DHT22;30723;51.206;3.326;2023-04-05T01:41:40;3.20;99.90
44990;DHT22;30723;51.206;3.326;2023-04-05T01:44:07;3.10;99.90
44990;DHT22;30723;51.206;3.326;2023-04-05T01:46:33;3.10;99.90
44990;DHT22;30723;51.206;3.326;2023-04-05T01:48:59;3.10;99.90
44990;DHT22;30723;51.206;3.326;2023-04-05T01:51:26;3.00;99.90
44990;DHT22;30723;51.206;3.326;2023-04-05T01:53:53;3.00;99.90
44990;DHT22;30723;51.206;3.326;2023-04-05T01:56:18;3.10;99.90
44990;DHT22;30723;51.206;3.326;2023-04-05T01:58:46;3.00;99.90
44990;DHT22;30723;51.206;3.326;2023-04-05T02:01:12;3.00;99.90
44990;DHT22;30723;51.206;3.326;2023-04-05T02:03:39;3.00;99.90
44990;DHT22;30723;51.206;3.326;2023-04-05T02:06:06;3.00;99.90
44990;DHT22;30723;51.206;3.326;2023-04-05T02:08:33;3.00;99.90
44990;DHT22;30723;51.206;3.326;2023-04-05T02:10:59;3.00;99.90
44990;DHT22;30723;51.206;3.326;2023-04-05T02:13:26;2.90;99.90
44990;DHT22;30723;51.206;3.326;2023-04-05T02:15:53;2.90;99.90
44990;DHT22;30723;51.206;3.326;2023-04-05T02:18:19;2.80;99.90
44990;DHT22;30723;51.206;3.326;2023-04-05T02:20:51;2.80;99.90
44990;DHT22;30723;51.206;3.326;2023-04-05T02:23:18;2.80;99.90
44990;DHT22;30723;51.206;3.326;2023-04-05T02:25:45;2.70;99.90
44990;DHT22;30723;51.206;3.326;2023-04-05T02:28:12;2.70;99.90
44990;DHT22;30723;51.206;3.326;2023-04-05T02:30:39;2.70;99.90
44990;DHT22;30723;51.206;3.326;2023-04-05T02:33:05;2.80;99.90
44990;DHT22;30723;51.206;3.326;2023-04-05T02:35:34;2.80;99.90
44990;DHT22;30723;51.206;3.326;2023-04-05T02:38:03;2.80;99.90
44990;DHT22;30723;51.206;3.326;2023-04-05T02:40:30;2.80;99.90
44990;DHT22;30723;51.206;3.326;2023-04-05T02:42:56;2.80;99.90
44990;DHT22;30723;51.206;3.326;2023-04-05T02:45:22;2.70;99.90
44990;DHT22;30723;51.206;3.326;2023-04-05T02:47:49;2.70;99.90
44990;DHT22;30723;51.206;3.326;2023-04-05T02:50:16;2.70;99.90
44990;DHT22;30723;51.206;3.326;2023-04-05T02:52:46;2.60;99.90
44990;DHT22;30723;51.206;3.326;2023-04-05T02:55:13;2.70;99.90
44990;DHT22;30723;51.206;3.326;2023-04-05T02:57:39;2.70;99.90
44990;DHT22;30723;51.206;3.326;2023-04-05T03:00:07;2.70;99.90
44990;DHT22;30723;51.206;3.326;2023-04-05T03:02:36;2.70;99.90
44990;DHT22;30723;51.206;3.326;2023-04-05T03:05:03;2.60;99.90
44990;DHT22;30723;51.206;3.326;2023-04-05T03:07:29;2.50;99.90
44990;DHT22;30723;51.206;3.326;2023-04-05T03:09:58;2.50;99.90
44990;DHT22;30723;51.206;3.326;2023-04-05T03:12:25;2.50;99.90
44990;DHT22;30723;51.206;3.326;2023-04-05T03:14:52;2.50;99.90
44990;DHT22;30723;51.206;3.326;2023-04-05T03:17:18;2.40;99.90
44990;DHT22;30723;51.206;3.326;2023-04-05T03:19:45;2.40;99.90
44990;DHT22;30723;51.206;3.326;2023-04-05T03:22:12;2.40;99.90
44990;DHT22;30723;51.206;3.326;2023-04-05T03:24:38;2.40;99.90
44990;DHT22;30723;51.206;3.326;2023-04-05T03:27:08;2.40;99.90
44990;DHT22;30723;51.206;3.326;2023-04-05T03:29:34;2.40;99.90
44990;DHT22;30723;51.206;3.326;2023-04-05T03:32:01;2.50;99.90
44990;DHT22;30723;51.206;3.326;2023-04-05T03:34:27;2.30;99.90
44990;DHT22;30723;51.206;3.326;2023-04-05T03:36:56;2.30;99.90
44990;DHT22;30723;51.206;3.326;2023-04-05T03:39:22;2.20;99.90
44990;DHT22;30723;51.206;3.326;2023-04-05T03:41:49;2.30;99.90
44990;DHT22;30723;51.206;3.326;2023-04-05T03:44:16;2.20;99.90
44990;DHT22;30723;51.206;3.326;2023-04-05T03:46:43;2.30;99.90
44990;DHT22;30723;51.206;3.326;2023-04-05T03:49:10;2.20;99.90
44990;DHT22;30723;51.206;3.326;2023-04-05T03:51:37;2.20;99.90
44990;DHT22;30723;51.206;3.326;2023-04-05T03:54:04;2.10;99.90
44990;DHT22;30723;51.206;3.326;2023-04-05T03:56:31;2.10;99.90
44990;DHT22;30723;51.206;3.326;2023-04-05T03:58:58;2.10;99.90
44990;DHT22;30723;51.206;3.326;2023-04-05T04:01:23;2.10;99.90
44990;DHT22;30723;51.206;3.326;2023-04-05T04:03:50;2.00;99.90
44990;DHT22;30723;51.206;3.326;2023-04-05T04:06:16;2.00;99.90
44990;DHT22;30723;51.206;3.326;2023-04-05T04:08:43;2.10;99.90
44990;DHT22;30723;51.206;3.326;2023-04-05T04:11:10;2.10;99.90
44990;DHT22;30723;51.206;3.326;2023-04-05T04:13:37;2.00;99.90
44990;DHT22;30723;51.206;3.326;2023-04-05T04:16:04;2.00;99.90
44990;DHT22;30723;51.206;3.326;2023-04-05T04:18:30;2.10;99.90
44990;DHT22;30723;51.206;3.326;2023-04-05T04:20:57;2.00;99.90
44990;DHT22;30723;51.206;3.326;2023-04-05T04:23:24;2.10;99.90
44990;DHT22;30723;51.206;3.326;2023-04-05T04:25:52;2.10;99.90
44990;DHT22;30723;51.206;3.326;2023-04-05T04:28:20;2.10;99.90
44990;DHT22;30723;51.206;3.326;2023-04-05T04:30:47;2.00;99.90
44990;DHT22;30723;51.206;3.326;2023-04-05T04:33:13;1.90;99.90
44990;DHT22;30723;51.206;3.326;2023-04-05T04:35:40;1.90;99.90
44990;DHT22;30723;51.206;3.326;2023-04-05T04:38:07;1.80;99.90
44990;DHT22;30723;51.206;3.326;2023-04-05T04:40:37;1.80;99.90
44990;DHT22;30723;51.206;3.326;2023-04-05T04:43:14;1.70;99.90
44990;DHT22;30723;51.206;3.326;2023-04-05T04:45:43;1.70;99.90
44990;DHT22;30723;51.206;3.326;2023-04-05T04:48:12;1.60;99.90
44990;DHT22;30723;51.206;3.326;2023-04-05T04:50:43;1.60;99.90
44990;DHT22;30723;51.206;3.326;2023-04-05T04:53:11;1.60;99.90
44990;DHT22;30723;51.206;3.326;2023-04-05T04:55:44;1.60;99.90
44990;DHT22;30723;51.206;3.326;2023-04-05T04:58:15;1.60;99.90
44990;DHT22;30723;51.206;3.326;2023-04-05T05:00:42;1.70;99.90
44990;DHT22;30723;51.206;3.326;2023-04-05T05:03:10;1.70;99.90
44990;DHT22;30723;51.206;3.326;2023-04-05T05:05:42;1.70;99.90
44990;DHT22;30723;51.206;3.326;2023-04-05T05:08:09;1.70;99.90
44990;DHT22;30723;51.206;3.326;2023-04-05T05:10:36;1.70;99.90
44990;DHT22;30723;51.206;3.326;2023-04-05T05:13:03;1.60;99.90
44990;DHT22;30723;51.206;3.326;2023-04-05T05:15:29;1.60;99.90
44990;DHT22;30723;51.206;3.326;2023-04-05T05:17:56;1.70;99.90
44990;DHT22;30723;51.206;3.326;2023-04-05T05:20:24;1.70;99.90
44990;DHT22;30723;51.206;3.326;2023-04-05T05:22:53;1.70;99.90
44990;DHT22;30723;51.206;3.326;2023-04-05T05:25:20;1.70;99.90
44990;DHT22;30723;51.206;3.326;2023-04-05T05:27:51;1.80;99.90
44990;DHT22;30723;51.206;3.326;2023-04-05T05:30:18;1.80;99.90
44990;DHT22;30723;51.206;3.326;2023-04-05T05:32:46;1.80;99.90
44990;DHT22;30723;51.206;3.326;2023-04-05T05:35:12;1.80;99.90
44990;DHT22;30723;51.206;3.326;2023-04-05T05:37:39;1.80;99.90
44990;DHT22;30723;51.206;3.326;2023-04-05T05:40:08;1.80;99.90
44990;DHT22;30723;51.206;3.326;2023-04-05T05:42:38;1.80;99.90
44990;DHT22;30723;51.206;3.326;2023-04-05T05:45:07;1.80;99.90
44990;DHT22;30723;51.206;3.326;2023-04-05T05:47:33;1.90;99.90
44990;DHT22;30723;51.206;3.326;2023-04-05T05:49:59;1.90;99.90
44990;DHT22;30723;51.206;3.326;2023-04-05T05:52:26;1.90;99.90
44990;DHT22;30723;51.206;3.326;2023-04-05T05:54:52;2.00;99.90
44990;DHT22;30723;51.206;3.326;2023-04-05T05:57:19;2.10;99.90
44990;DHT22;30723;51.206;3.326;2023-04-05T05:59:46;2.10;99.90
44990;DHT22;30723;51.206;3.326;2023-04-05T06:02:12;2.10;99.90
44990;DHT22;30723;51.206;3.326;2023-04-05T06:04:38;2.20;99.90
44990;DHT22;30723;51.206;3.326;2023-04-05T06:07:04;2.20;99.90
44990;DHT22;30723;51.206;3.326;2023-04-05T06:09:31;2.20;99.90
44990;DHT22;30723;51.206;3.326;2023-04-05T06:12:00;2.30;99.90
44990;DHT22;30723;51.206;3.326;2023-04-05T06:14:27;2.40;99.90
44990;DHT22;30723;51.206;3.326;2023-04-05T06:16:55;2.40;99.90
44990;DHT22;30723;51.206;3.326;2023-04-05T06:19:22;2.50;99.90
44990;DHT22;30723;51.206;3.326;2023-04-05T06:21:49;2.60;99.90
44990;DHT22;30723;51.206;3.326;2023-04-05T06:24:14;2.70;99.90
44990;DHT22;30723;51.206;3.326;2023-04-05T06:26:40;2.80;99.90
44990;DHT22;30723;51.206;3.326;2023-04-05T06:29:07;3.00;99.90
44990;DHT22;30723;51.206;3.326;2023-04-05T06:31:34;3.10;99.90
44990;DHT22;30723;51.206;3.326;2023-04-05T06:34:01;3.30;99.90
44990;DHT22;30723;51.206;3.326;2023-04-05T06:36:30;3.40;99.90
44990;DHT22;30723;51.206;3.326;2023-04-05T06:38:57;3.50;99.90
44990;DHT22;30723;51.206;3.326;2023-04-05T06:41:24;3.60;99.90
44990;DHT22;30723;51.206;3.326;2023-04-05T06:43:53;3.70;99.90
44990;DHT22;30723;51.206;3.326;2023-04-05T06:46:20;3.70;99.90
44990;DHT22;30723;51.206;3.326;2023-04-05T06:48:46;3.90;99.90
44990;DHT22;30723;51.206;3.326;2023-04-05T06:51:14;4.00;99.90
44990;DHT22;30723;51.206;3.326;2023-04-05T06:53:41;4.20;99.90
44990;DHT22;30723;51.206;3.326;2023-04-05T06:56:09;4.20;99.90
44990;DHT22;30723;51.206;3.326;2023-04-05T06:58:36;4.20;99.90
44990;DHT22;30723;51.206;3.326;2023-04-05T07:01:03;4.30;99.90
44990;DHT22;30723;51.206;3.326;2023-04-05T07:03:30;4.40;99.90
44990;DHT22;30723;51.206;3.326;2023-04-05T07:05:58;4.60;99.90
44990;DHT22;30723;51.206;3.326;2023-04-05T07:08:26;4.80;99.90
44990;DHT22;30723;51.206;3.326;2023-04-05T07:10:54;5.00;99.90
44990;DHT22;30723;51.206;3.326;2023-04-05T07:13:21;5.10;99.90
44990;DHT22;30723;51.206;3.326;2023-04-05T07:15:47;5.30;99.90
44990;DHT22;30723;51.206;3.326;2023-04-05T07:18:13;5.40;99.90
44990;DHT22;30723;51.206;3.326;2023-04-05T07:20:40;5.50;99.90
44990;DHT22;30723;51.206;3.326;2023-04-05T07:23:06;5.70;99.90
44990;DHT22;30723;51.206;3.326;2023-04-05T07:25:33;5.70;99.90
44990;DHT22;30723;51.206;3.326;2023-04-05T07:27:59;5.90;99.90
44990;DHT22;30723;51.206;3.326;2023-04-05T07:30:27;6.20;99.90
44990;DHT22;30723;51.206;3.326;2023-04-05T07:32:54;6.80;99.90
44990;DHT22;30723;51.206;3.326;2023-04-05T07:35:21;7.50;99.90
44990;DHT22;30723;51.206;3.326;2023-04-05T07:37:47;8.10;99.90
44990;DHT22;30723;51.206;3.326;2023-04-05T07:40:13;8.80;99.90
44990;DHT22;30723;51.206;3.326;2023-04-05T07:42:40;9.50;99.90
44990;DHT22;30723;51.206;3.326;2023-04-05T07:45:07;10.10;99.90
44990;DHT22;30723;51.206;3.326;2023-04-05T07:47:34;10.90;99.90
44990;DHT22;30723;51.206;3.326;2023-04-05T07:50:01;11.50;99.90
44990;DHT22;30723;51.206;3.326;2023-04-05T07:52:28;11.90;99.90
44990;DHT22;30723;51.206;3.326;2023-04-05T07:54:55;12.20;99.90
44990;DHT22;30723;51.206;3.326;2023-04-05T07:57:22;12.70;99.90
44990;DHT22;30723;51.206;3.326;2023-04-05T07:59:49;13.30;99.90
44990;DHT22;30723;51.206;3.326;2023-04-05T08:02:18;13.80;99.90
44990;DHT22;30723;51.206;3.326;2023-04-05T08:04:45;14.40;99.90
44990;DHT22;30723;51.206;3.326;2023-04-05T08:07:11;14.60;99.90
44990;DHT22;30723;51.206;3.326;2023-04-05T08:09:37;14.90;99.90
44990;DHT22;30723;51.206;3.326;2023-04-05T08:12:04;14.90;99.90
44990;DHT22;30723;51.206;3.326;2023-04-05T08:14:31;15.20;99.90
44990;DHT22;30723;51.206;3.326;2023-04-05T08:16:56;15.20;99.90
44990;DHT22;30723;51.206;3.326;2023-04-05T08:19:23;15.40;99.90
44990;DHT22;30723;51.206;3.326;2023-04-05T08:21:49;15.70;99.90
44990;DHT22;30723;51.206;3.326;2023-04-05T08:24:16;16.30;99.90
44990;DHT22;30723;51.206;3.326;2023-04-05T08:26:42;16.80;99.90
44990;DHT22;30723;51.206;3.326;2023-04-05T08:29:09;17.00;98.40
44990;DHT22;30723;51.206;3.326;2023-04-05T08:31:35;17.20;95.30
44990;DHT22;30723;51.206;3.326;2023-04-05T08:34:03;17.10;92.40
44990;DHT22;30723;51.206;3.326;2023-04-05T08:36:29;17.10;92.00
44990;DHT22;30723;51.206;3.326;2023-04-05T08:38:57;17.30;91.30
44990;DHT22;30723;51.206;3.326;2023-04-05T08:41:24;17.30;91.60
44990;DHT22;30723;51.206;3.326;2023-04-05T08:43:59;17.60;90.70
44990;DHT22;30723;51.206;3.326;2023-04-05T08:46:30;17.90;89.00
44990;DHT22;30723;51.206;3.326;2023-04-05T08:48:57;17.50;88.30
44990;DHT22;30723;51.206;3.326;2023-04-05T08:51:25;17.70;87.50
44990;DHT22;30723;51.206;3.326;2023-04-05T08:53:53;17.00;88.10
44990;DHT22;30723;51.206;3.326;2023-04-05T08:56:35;16.20;87.00
44990;DHT22;30723;51.206;3.326;2023-04-05T08:59:06;15.40;87.00
44990;DHT22;30723;51.206;3.326;2023-04-05T09:01:36;14.60;92.20
44990;DHT22;30723;51.206;3.326;2023-04-05T09:04:11;14.20;94.70
44990;DHT22;30723;51.206;3.326;2023-04-05T09:06:39;13.60;96.20
44990;DHT22;30723;51.206;3.326;2023-04-05T09:09:07;14.20;96.80
44990;DHT22;30723;51.206;3.326;2023-04-05T09:11:34;15.20;91.30
44990;DHT22;30723;51.206;3.326;2023-04-05T09:14:07;16.00;90.30
44990;DHT22;30723;51.206;3.326;2023-04-05T09:16:40;17.20;84.60
44990;DHT22;30723;51.206;3.326;2023-04-05T09:19:08;18.20;84.20
44990;DHT22;30723;51.206;3.326;2023-04-05T09:22:07;19.20;76.00
44990;DHT22;30723;51.206;3.326;2023-04-05T09:24:35;20.00;74.20
44990;DHT22;30723;51.206;3.326;2023-04-05T09:27:10;20.20;71.30
44990;DHT22;30723;51.206;3.326;2023-04-05T09:29:45;20.30;71.90
44990;DHT22;30723;51.206;3.326;2023-04-05T09:32:13;20.50;69.40
44990;DHT22;30723;51.206;3.326;2023-04-05T09:34:41;20.50;67.00
44990;DHT22;30723;51.206;3.326;2023-04-05T09:37:21;20.90;62.80
44990;DHT22;30723;51.206;3.326;2023-04-05T09:39:49;21.70;64.70
44990;DHT22;30723;51.206;3.326;2023-04-05T09:42:18;22.50;58.40
44990;DHT22;30723;51.206;3.326;2023-04-05T09:44:52;22.50;54.60
44990;DHT22;30723;51.206;3.326;2023-04-05T09:47:21;22.20;54.60
44990;DHT22;30723;51.206;3.326;2023-04-05T09:49:47;22.00;55.80
44990;DHT22;30723;51.206;3.326;2023-04-05T09:52:19;22.30;55.70
44990;DHT22;30723;51.206;3.326;2023-04-05T09:54:46;23.30;52.60
44990;DHT22;30723;51.206;3.326;2023-04-05T09:57:14;24.80;52.80
44990;DHT22;30723;51.206;3.326;2023-04-05T09:59:40;25.70;50.60
44990;DHT22;30723;51.206;3.326;2023-04-05T10:02:09;25.90;50.00
44990;DHT22;30723;51.206;3.326;2023-04-05T10:04:39;25.30;49.00
44990;DHT22;30723;51.206;3.326;2023-04-05T10:07:07;24.10;48.40
44990;DHT22;30723;51.206;3.326;2023-04-05T10:09:33;23.30;48.70
44990;DHT22;30723;51.206;3.326;2023-04-05T10:12:00;23.20;49.30
44990;DHT22;30723;51.206;3.326;2023-04-05T10:14:27;23.70;51.60
44990;DHT22;30723;51.206;3.326;2023-04-05T10:22:29;27.00;46.20
44990;DHT22;30723;51.206;3.326;2023-04-05T10:27:51;26.20;45.00
44990;DHT22;30723;51.206;3.326;2023-04-05T10:30:18;25.40;44.90
44990;DHT22;30723;51.206;3.326;2023-04-05T10:38:27;25.40;46.90
44990;DHT22;30723;51.206;3.326;2023-04-05T10:41:04;24.90;45.00
44990;DHT22;30723;51.206;3.326;2023-04-05T10:43:34;24.20;45.20
44990;DHT22;30723;51.206;3.326;2023-04-05T10:46:03;24.30;47.50
44990;DHT22;30723;51.206;3.326;2023-04-05T10:51:18;24.00;45.80
44990;DHT22;30723;51.206;3.326;2023-04-05T10:53:46;24.50;45.60
44990;DHT22;30723;51.206;3.326;2023-04-05T10:56:13;24.50;46.50
44990;DHT22;30723;51.206;3.326;2023-04-05T10:58:39;24.60;45.30
44990;DHT22;30723;51.206;3.326;2023-04-05T11:01:08;25.20;45.80
44990;DHT22;30723;51.206;3.326;2023-04-05T11:03:48;25.20;45.10
44990;DHT22;30723;51.206;3.326;2023-04-05T11:06:30;25.40;45.20
44990;DHT22;30723;51.206;3.326;2023-04-05T11:09:01;26.30;43.40
44990;DHT22;30723;51.206;3.326;2023-04-05T11:11:42;27.10;44.10
44990;DHT22;30723;51.206;3.326;2023-04-05T11:16:58;27.50;43.10
44990;DHT22;30723;51.206;3.326;2023-04-05T11:22:12;27.60;41.80
44990;DHT22;30723;51.206;3.326;2023-04-05T11:27:33;26.90;42.40
44990;DHT22;30723;51.206;3.326;2023-04-05T11:30:02;27.10;42.00
44990;DHT22;30723;51.206;3.326;2023-04-05T11:32:42;26.80;41.70
44990;DHT22;30723;51.206;3.326;2023-04-05T11:35:15;27.20;42.70
44990;DHT22;30723;51.206;3.326;2023-04-05T11:40:36;27.10;41.70
44990;DHT22;30723;51.206;3.326;2023-04-05T11:43:10;26.70;42.90
44990;DHT22;30723;51.206;3.326;2023-04-05T11:45:38;26.70;42.90
44990;DHT22;30723;51.206;3.326;2023-04-05T11:48:10;26.80;42.00
44990;DHT22;30723;51.206;3.326;2023-04-05T11:50:38;26.60;42.10
44990;DHT22;30723;51.206;3.326;2023-04-05T11:53:16;26.50;41.90
44990;DHT22;30723;51.206;3.326;2023-04-05T11:55:47;26.40;44.20
44990;DHT22;30723;51.206;3.326;2023-04-05T11:58:22;26.70;42.10
44990;DHT22;30723;51.206;3.326;2023-04-05T12:00:58;27.50;41.60
44990;DHT22;30723;51.206;3.326;2023-04-05T12:03:27;28.50;41.40
44990;DHT22;30723;51.206;3.326;2023-04-05T12:05:56;29.10;41.40
44990;DHT22;30723;51.206;3.326;2023-04-05T12:08:23;28.70;41.80
44990;DHT22;30723;51.206;3.326;2023-04-05T12:10:54;28.50;41.60
44990;DHT22;30723;51.206;3.326;2023-04-05T12:13:28;28.70;39.20
44990;DHT22;30723;51.206;3.326;2023-04-05T12:15:59;29.10;39.20
44990;DHT22;30723;51.206;3.326;2023-04-05T12:18:29;28.70;39.10
44990;DHT22;30723;51.206;3.326;2023-04-05T12:20:56;27.70;38.80
44990;DHT22;30723;51.206;3.326;2023-04-05T12:23:23;27.90;40.30
44990;DHT22;30723;51.206;3.326;2023-04-05T12:25:52;27.60;39.80
44990;DHT22;30723;51.206;3.326;2023-04-05T12:28:20;27.00;40.00
44990;DHT22;30723;51.206;3.326;2023-04-05T12:30:54;26.40;41.10
44990;DHT22;30723;51.206;3.326;2023-04-05T12:33:32;26.00;40.60
44990;DHT22;30723;51.206;3.326;2023-04-05T12:36:04;25.40;41.30
44990;DHT22;30723;51.206;3.326;2023-04-05T12:38:31;25.20;41.70
44990;DHT22;30723;51.206;3.326;2023-04-05T12:41:02;25.60;43.00
44990;DHT22;30723;51.206;3.326;2023-04-05T12:43:40;25.50;41.90
44990;DHT22;30723;51.206;3.326;2023-04-05T12:46:42;26.10;42.50
44990;DHT22;30723;51.206;3.326;2023-04-05T12:49:17;27.30;41.40
44990;DHT22;30723;51.206;3.326;2023-04-05T12:51:45;28.90;39.30
44990;DHT22;30723;51.206;3.326;2023-04-05T12:54:21;29.20;39.20
44990;DHT22;30723;51.206;3.326;2023-04-05T12:56:54;29.90;39.60
44990;DHT22;30723;51.206;3.326;2023-04-05T12:59:20;30.40;38.20
44990;DHT22;30723;51.206;3.326;2023-04-05T13:01:46;29.80;38.30
44990;DHT22;30723;51.206;3.326;2023-04-05T13:04:13;29.60;37.60
44990;DHT22;30723;51.206;3.326;2023-04-05T13:06:38;29.20;39.10
44990;DHT22;30723;51.206;3.326;2023-04-05T13:09:05;28.10;38.50
44990;DHT22;30723;51.206;3.326;2023-04-05T13:11:32;28.10;39.40
44990;DHT22;30723;51.206;3.326;2023-04-05T13:14:01;28.20;39.80
44990;DHT22;30723;51.206;3.326;2023-04-05T13:16:28;28.00;39.60
44990;DHT22;30723;51.206;3.326;2023-04-05T13:18:55;27.50;40.80
44990;DHT22;30723;51.206;3.326;2023-04-05T13:21:21;28.30;38.80
44990;DHT22;30723;51.206;3.326;2023-04-05T13:23:48;28.00;39.10
44990;DHT22;30723;51.206;3.326;2023-04-05T13:26:15;27.90;40.30
44990;DHT22;30723;51.206;3.326;2023-04-05T13:28:41;28.30;40.40
44990;DHT22;30723;51.206;3.326;2023-04-05T13:31:07;28.00;40.60
44990;DHT22;30723;51.206;3.326;2023-04-05T13:33:42;27.90;40.00
44990;DHT22;30723;51.206;3.326;2023-04-05T13:36:10;27.60;40.00
44990;DHT22;30723;51.206;3.326;2023-04-05T13:38:37;27.00;37.90
44990;DHT22;30723;51.206;3.326;2023-04-05T13:41:04;26.40;37.50
44990;DHT22;30723;51.206;3.326;2023-04-05T13:43:31;26.00;37.80
44990;DHT22;30723;51.206;3.326;2023-04-05T13:45:57;25.20;39.90
44990;DHT22;30723;51.206;3.326;2023-04-05T13:48:24;24.60;40.10
44990;DHT22;30723;51.206;3.326;2023-04-05T13:50:51;24.70;40.80
44990;DHT22;30723;51.206;3.326;2023-04-05T13:53:17;24.70;41.00
44990;DHT22;30723;51.206;3.326;2023-04-05T13:55:44;24.90;41.30
44990;DHT22;30723;51.206;3.326;2023-04-05T13:58:11;25.10;42.00
44990;DHT22;30723;51.206;3.326;2023-04-05T14:00:38;25.00;40.20
44990;DHT22;30723;51.206;3.326;2023-04-05T14:03:05;24.80;42.10
44990;DHT22;30723;51.206;3.326;2023-04-05T14:05:32;25.20;40.60
44990;DHT22;30723;51.206;3.326;2023-04-05T14:07:59;25.70;39.00
44990;DHT22;30723;51.206;3.326;2023-04-05T14:10:25;25.90;38.50
44990;DHT22;30723;51.206;3.326;2023-04-05T14:12:51;27.40;41.00
44990;DHT22;30723;51.206;3.326;2023-04-05T14:15:18;28.90;40.70
44990;DHT22;30723;51.206;3.326;2023-04-05T14:17:44;29.70;41.60
44990;DHT22;30723;51.206;3.326;2023-04-05T14:20:12;30.20;43.50
44990;DHT22;30723;51.206;3.326;2023-04-05T14:22:37;30.60;42.80
44990;DHT22;30723;51.206;3.326;2023-04-05T14:25:05;30.90;40.90
44990;DHT22;30723;51.206;3.326;2023-04-05T14:27:33;30.70;40.70
44990;DHT22;30723;51.206;3.326;2023-04-05T14:30:03;31.20;42.10
44990;DHT22;30723;51.206;3.326;2023-04-05T14:32:30;31.00;41.60
44990;DHT22;30723;51.206;3.326;2023-04-05T14:34:57;30.30;41.10
44990;DHT22;30723;51.206;3.326;2023-04-05T14:37:24;30.30;41.90
44990;DHT22;30723;51.206;3.326;2023-04-05T14:39:51;30.10;43.30
44990;DHT22;30723;51.206;3.326;2023-04-05T14:42:17;30.20;42.30
44990;DHT22;30723;51.206;3.326;2023-04-05T14:44:44;29.40;41.60
44990;DHT22;30723;51.206;3.326;2023-04-05T14:47:10;28.60;43.00
44990;DHT22;30723;51.206;3.326;2023-04-05T14:49:37;27.30;43.00
44990;DHT22;30723;51.206;3.326;2023-04-05T14:52:04;27.50;45.60
44990;DHT22;30723;51.206;3.326;2023-04-05T14:54:30;28.70;44.20
44990;DHT22;30723;51.206;3.326;2023-04-05T14:56:57;29.80;42.90
44990;DHT22;30723;51.206;3.326;2023-04-05T14:59:24;30.30;42.50
44990;DHT22;30723;51.206;3.326;2023-04-05T15:01:52;30.20;42.00
44990;DHT22;30723;51.206;3.326;2023-04-05T15:04:19;30.00;41.40
44990;DHT22;30723;51.206;3.326;2023-04-05T15:06:44;30.50;41.40
44990;DHT22;30723;51.206;3.326;2023-04-05T15:09:10;30.60;41.40
44990;DHT22;30723;51.206;3.326;2023-04-05T15:11:37;30.00;42.10
44990;DHT22;30723;51.206;3.326;2023-04-05T15:14:05;29.70;41.30
44990;DHT22;30723;51.206;3.326;2023-04-05T15:16:32;28.30;43.00
44990;DHT22;30723;51.206;3.326;2023-04-05T15:18:59;27.90;44.00
44990;DHT22;30723;51.206;3.326;2023-04-05T15:21:25;27.30;43.50
44990;DHT22;30723;51.206;3.326;2023-04-05T15:23:52;27.20;43.70
44990;DHT22;30723;51.206;3.326;2023-04-05T15:26:19;27.40;44.40
44990;DHT22;30723;51.206;3.326;2023-04-05T15:28:46;27.90;43.90
44990;DHT22;30723;51.206;3.326;2023-04-05T15:31:12;27.10;44.90
44990;DHT22;30723;51.206;3.326;2023-04-05T15:33:39;26.90;44.60
44990;DHT22;30723;51.206;3.326;2023-04-05T15:36:07;27.10;45.80
44990;DHT22;30723;51.206;3.326;2023-04-05T15:38:33;27.50;46.10
44990;DHT22;30723;51.206;3.326;2023-04-05T15:41:00;27.20;45.70
44990;DHT22;30723;51.206;3.326;2023-04-05T15:43:27;27.10;45.60
44990;DHT22;30723;51.206;3.326;2023-04-05T15:45:54;26.90;45.30
44990;DHT22;30723;51.206;3.326;2023-04-05T15:48:21;26.70;45.30
44990;DHT22;30723;51.206;3.326;2023-04-05T15:50:47;26.50;46.80
44990;DHT22;30723;51.206;3.326;2023-04-05T15:53:12;26.50;45.40
44990;DHT22;30723;51.206;3.326;2023-04-05T15:55:39;26.40;45.90
44990;DHT22;30723;51.206;3.326;2023-04-05T15:58:06;25.90;46.30
44990;DHT22;30723;51.206;3.326;2023-04-05T16:00:32;25.80;46.30
44990;DHT22;30723;51.206;3.326;2023-04-05T16:03:00;25.10;47.00
44990;DHT22;30723;51.206;3.326;2023-04-05T16:05:26;24.60;47.30
44990;DHT22;30723;51.206;3.326;2023-04-05T16:07:53;24.40;47.70
44990;DHT22;30723;51.206;3.326;2023-04-05T16:10:20;24.00;48.40
44990;DHT22;30723;51.206;3.326;2023-04-05T16:12:51;23.60;49.10
44990;DHT22;30723;51.206;3.326;2023-04-05T16:15:17;23.10;49.50
44990;DHT22;30723;51.206;3.326;2023-04-05T16:17:44;22.80;51.10
44990;DHT22;30723;51.206;3.326;2023-04-05T16:20:12;22.20;52.00
44990;DHT22;30723;51.206;3.326;2023-04-05T16:22:38;22.10;51.90
44990;DHT22;30723;51.206;3.326;2023-04-05T16:25:06;21.70;52.40
44990;DHT22;30723;51.206;3.326;2023-04-05T16:27:32;20.90;53.60
44990;DHT22;30723;51.206;3.326;2023-04-05T16:30:01;19.80;54.90